createdAt,value
2022-09-03T00:01:39.389Z,10.65
2022-09-03T00:04:11.857Z,7.55
2022-09-03T00:06:43.828Z,8.73
2022-09-03T00:09:15.890Z,7.70
2022-09-03T00:11:50.686Z,7.35
2022-09-03T00:14:22.772Z,7.72
2022-09-03T00:16:52.675Z,7.20
2022-09-03T00:19:23.121Z,6.03
2022-09-03T00:21:54.206Z,7.43
2022-09-03T00:24:25.200Z,8.90
2022-09-03T00:26:55.549Z,9.32
2022-09-03T00:29:26.200Z,8.77
2022-09-03T00:31:56.950Z,7.80
2022-09-03T00:34:27.088Z,11.48
2022-09-03T00:36:57.173Z,9.95
2022-09-03T00:39:27.110Z,9.85
2022-09-03T00:42:06.805Z,8.32
2022-09-03T00:44:50.080Z,8.75
2022-09-03T00:47:25.034Z,10.55
2022-09-03T00:50:00.272Z,10.80
2022-09-03T00:52:35.801Z,7.63
2022-09-03T00:55:08.773Z,9.93
2022-09-03T00:57:44.326Z,7.90
2022-09-03T01:00:14.133Z,9.10
2022-09-03T01:02:49.485Z,9.38
2022-09-03T01:05:23.511Z,10.32
2022-09-03T01:07:58.605Z,9.57
2022-09-03T01:10:32.358Z,8.88
2022-09-03T01:13:03.723Z,12.27
2022-09-03T01:15:37.461Z,7.30
2022-09-03T01:18:13.660Z,7.18
2022-09-03T01:20:47.658Z,11.75
2022-09-03T01:23:40.080Z,7.93
2022-09-03T01:26:17.679Z,8.70
2022-09-03T01:28:55.322Z,9.30
2022-09-03T01:31:28.750Z,9.55
2022-09-03T01:34:02.340Z,7.53
2022-09-03T01:36:35.982Z,9.77
2022-09-03T01:39:05.711Z,9.55
2022-09-03T01:41:58.917Z,6.65
2022-09-03T01:44:40.540Z,6.68
2022-09-03T01:47:14.724Z,10.85
2022-09-03T01:49:46.640Z,6.20
2022-09-03T01:52:16.036Z,7.45
2022-09-03T01:54:51.828Z,6.95
2022-09-03T01:57:38.306Z,7.03
2022-09-03T02:00:11.119Z,7.07
2022-09-03T02:02:41.159Z,5.95
2022-09-03T02:05:11.264Z,7.13
2022-09-03T02:07:40.796Z,7.75
2022-09-03T02:10:10.654Z,6.32
2022-09-03T02:12:42.216Z,9.07
2022-09-03T02:15:14.348Z,9.52
2022-09-03T02:17:43.795Z,7.72
2022-09-03T02:20:13.840Z,8.35
2022-09-03T02:22:42.501Z,8.80
2022-09-03T02:25:12.062Z,7.07
2022-09-03T02:27:40.522Z,5.40
2022-09-03T02:30:09.737Z,9.68
2022-09-03T02:32:39.703Z,9.00
2022-09-03T02:35:08.478Z,6.47
2022-09-03T02:37:36.894Z,7.47
2022-09-03T02:40:06.809Z,6.30
2022-09-03T02:42:35.277Z,7.57
2022-09-03T02:45:05.891Z,8.07
2022-09-03T02:47:35.721Z,7.63
2022-09-03T02:50:05.542Z,7.88
2022-09-03T02:52:33.901Z,6.85
2022-09-03T02:55:02.302Z,8.48
2022-09-03T02:57:30.766Z,6.80
2022-09-03T02:59:59.121Z,9.23
2022-09-03T03:02:27.709Z,8.98
2022-09-03T03:04:56.170Z,8.02
2022-09-03T03:07:26.613Z,10.50
2022-09-03T03:09:55.040Z,6.57
2022-09-03T03:12:23.429Z,7.00
2022-09-03T03:14:51.771Z,6.72
2022-09-03T03:17:20.983Z,7.75
2022-09-03T03:19:49.517Z,7.85
2022-09-03T03:22:17.920Z,6.78
2022-09-03T03:24:50.410Z,9.43
2022-09-03T03:27:18.988Z,8.05
2022-09-03T03:29:47.761Z,9.13
2022-09-03T03:32:16.109Z,9.15
2022-09-03T03:34:44.494Z,9.68
2022-09-03T03:37:12.869Z,8.45
2022-09-03T03:39:41.303Z,7.75
2022-09-03T03:42:11.515Z,9.73
2022-09-03T03:44:39.872Z,10.48
2022-09-03T03:47:08.261Z,7.05
2022-09-03T03:49:36.732Z,7.75
2022-09-03T03:52:05.652Z,9.13
2022-09-03T03:54:34.026Z,8.10
2022-09-03T03:57:03.046Z,6.72
2022-09-03T03:59:32.797Z,10.07
2022-09-03T04:02:01.381Z,7.57
2022-09-03T04:04:30.093Z,6.38
2022-09-03T04:06:58.471Z,6.95
2022-09-03T04:09:26.859Z,6.50
2022-09-03T04:11:57.808Z,7.43
2022-09-03T04:14:26.199Z,7.43
2022-09-03T04:16:56.527Z,7.60
2022-09-03T04:19:25.226Z,7.43
2022-09-03T04:21:53.650Z,6.45
2022-09-03T04:24:22.028Z,6.30
2022-09-03T04:26:51.668Z,7.22
2022-09-03T04:29:21.390Z,8.88
2022-09-03T04:32:03.662Z,6.68
2022-09-03T04:34:33.769Z,5.88
2022-09-03T04:37:02.145Z,7.68
2022-09-03T04:39:30.574Z,7.60
2022-09-03T04:42:00.135Z,8.23
2022-09-03T04:44:28.622Z,9.10
2022-09-03T04:46:57.017Z,7.22
2022-09-03T04:49:25.981Z,7.97
2022-09-03T04:51:55.846Z,8.43
2022-09-03T04:54:24.228Z,7.45
2022-09-03T04:56:57.686Z,7.57
2022-09-03T04:59:26.075Z,7.35
2022-09-03T05:01:56.425Z,7.85
2022-09-03T05:04:24.811Z,7.22
2022-09-03T05:06:53.218Z,7.63
2022-09-03T05:09:22.980Z,8.25
2022-09-03T05:11:51.365Z,11.90
2022-09-03T05:14:19.772Z,8.32
2022-09-03T05:16:52.965Z,10.48
2022-09-03T05:19:22.159Z,6.93
2022-09-03T05:21:50.515Z,8.13
2022-09-03T05:24:19.017Z,7.30
2022-09-03T05:26:48.915Z,7.68
2022-09-03T05:29:17.333Z,7.53
2022-09-03T05:31:45.809Z,9.90
2022-09-03T05:34:16.396Z,9.65
2022-09-03T05:36:47.089Z,9.65
2022-09-03T05:39:15.515Z,9.90
2022-09-03T05:41:43.889Z,11.70
2022-09-03T05:44:14.845Z,9.02
2022-09-03T05:46:43.176Z,9.75
2022-09-03T05:49:12.585Z,7.28
2022-09-03T05:51:41.001Z,7.65
2022-09-03T05:54:09.622Z,10.05
2022-09-03T05:56:40.051Z,7.10
2022-09-03T05:59:09.421Z,7.40
2022-09-03T06:01:40.015Z,7.15
2022-09-03T06:04:09.704Z,7.90
2022-09-03T06:06:39.157Z,6.45
2022-09-03T06:09:09.005Z,6.97
2022-09-03T06:11:38.229Z,7.65
2022-09-03T06:14:08.565Z,6.45
2022-09-03T06:16:38.984Z,8.90
2022-09-03T06:19:09.595Z,6.20
2022-09-03T06:21:42.899Z,6.40
2022-09-03T06:24:12.239Z,9.80
2022-09-03T06:26:42.857Z,7.85
2022-09-03T06:29:11.713Z,9.50
2022-09-03T06:31:40.463Z,7.07
2022-09-03T06:34:10.428Z,8.00
2022-09-03T06:36:41.324Z,7.05
2022-09-03T06:39:09.940Z,5.50
2022-09-03T06:41:38.384Z,6.68
2022-09-03T06:44:11.531Z,6.45
2022-09-03T06:46:42.343Z,5.95
2022-09-03T06:49:12.828Z,5.20
2022-09-03T06:51:43.257Z,8.77
2022-09-03T06:54:12.607Z,6.45
2022-09-03T06:56:42.099Z,6.60
2022-09-03T06:59:11.153Z,7.63
2022-09-03T07:01:43.737Z,4.60
2022-09-03T07:04:16.198Z,6.40
2022-09-03T07:06:45.326Z,5.85
2022-09-03T07:09:15.494Z,6.15
2022-09-03T07:11:48.558Z,5.68
2022-09-03T07:14:17.791Z,9.02
2022-09-03T07:16:46.345Z,5.53
2022-09-03T07:19:16.459Z,6.05
2022-09-03T07:21:49.666Z,6.22
2022-09-03T07:24:19.466Z,4.90
2022-09-03T07:26:48.814Z,7.65
2022-09-03T07:29:20.170Z,5.15
2022-09-03T07:31:51.459Z,5.00
2022-09-03T07:34:24.310Z,4.50
2022-09-03T07:36:54.223Z,7.47
2022-09-03T07:39:22.919Z,6.18
2022-09-03T07:41:51.381Z,6.68
2022-09-03T07:44:20.543Z,6.28
2022-09-03T07:46:51.392Z,4.70
2022-09-03T07:49:22.474Z,4.97
2022-09-03T07:51:54.251Z,4.72
2022-09-03T07:54:24.017Z,4.55
2022-09-03T07:56:52.621Z,4.60
2022-09-03T07:59:23.072Z,5.00
2022-09-03T08:01:52.217Z,6.28
2022-09-03T08:04:23.034Z,4.53
2022-09-03T08:06:55.545Z,4.90
2022-09-03T08:09:24.493Z,4.43
2022-09-03T08:11:53.437Z,4.22
2022-09-03T08:14:22.065Z,5.38
2022-09-03T08:16:50.473Z,5.30
2022-09-03T08:19:19.317Z,6.03
2022-09-03T08:21:49.090Z,4.10
2022-09-03T08:24:18.139Z,6.20
2022-09-03T08:26:51.387Z,4.43
2022-09-03T08:29:20.792Z,4.88
2022-09-03T08:31:49.393Z,4.55
2022-09-03T08:34:18.238Z,4.22
2022-09-03T08:36:47.555Z,4.43
2022-09-03T08:39:18.173Z,4.18
2022-09-03T08:41:57.997Z,5.13
2022-09-03T08:44:28.015Z,3.88
2022-09-03T08:46:59.218Z,3.90
2022-09-03T08:49:29.991Z,3.97
2022-09-03T08:52:00.675Z,5.20
2022-09-03T08:54:32.554Z,4.22
2022-09-03T08:57:02.785Z,3.75
2022-09-03T08:59:33.214Z,4.05
2022-09-03T09:02:07.136Z,4.63
2022-09-03T09:04:40.007Z,3.92
2022-09-03T09:07:11.776Z,6.65
2022-09-03T09:09:48.875Z,4.45
2022-09-03T09:12:29.153Z,4.40
2022-09-03T09:15:06.121Z,5.13
2022-09-03T09:17:47.040Z,4.05
2022-09-03T09:20:19.615Z,4.95
2022-09-03T09:22:49.893Z,4.03
2022-09-03T09:25:21.007Z,4.15
2022-09-03T09:27:52.889Z,4.97
2022-09-03T09:30:21.324Z,5.40
2022-09-03T09:32:49.828Z,4.18
2022-09-03T09:35:19.483Z,6.10
2022-09-03T09:37:54.653Z,3.90
2022-09-03T09:40:29.657Z,5.85
2022-09-03T09:43:05.365Z,4.55
2022-09-03T09:45:34.382Z,3.80
2022-09-03T09:48:04.149Z,5.30
2022-09-03T09:50:32.528Z,3.85
2022-09-03T09:53:08.442Z,4.65
2022-09-03T09:55:39.012Z,3.72
2022-09-03T09:58:14.034Z,3.45
2022-09-03T10:00:43.054Z,3.78
2022-09-03T10:03:13.878Z,5.15
2022-09-03T10:05:44.209Z,4.13
2022-09-03T10:08:22.017Z,5.20
2022-09-03T10:10:52.678Z,4.07
2022-09-03T10:13:24.411Z,3.60
2022-09-03T10:15:56.195Z,4.05
2022-09-03T10:18:28.943Z,4.60
2022-09-03T10:21:00.116Z,6.95
2022-09-03T10:23:29.211Z,6.15
2022-09-03T10:26:07.265Z,5.35
2022-09-03T10:28:41.387Z,6.18
2022-09-03T10:31:21.571Z,10.27
2022-09-03T10:33:53.205Z,7.35
2022-09-03T10:36:24.190Z,6.25
2022-09-03T10:38:55.626Z,6.78
2022-09-03T10:41:30.620Z,6.78
2022-09-03T10:44:07.559Z,5.47
2022-09-03T10:46:39.346Z,7.35
2022-09-03T10:49:16.827Z,5.38
2022-09-03T10:51:49.909Z,4.88
2022-09-03T10:54:25.237Z,5.18
2022-09-03T10:56:59.220Z,5.53
2022-09-03T10:59:34.131Z,6.68
2022-09-03T11:02:08.252Z,5.53
2022-09-03T11:04:41.885Z,8.80
2022-09-03T11:07:12.286Z,5.72
2022-09-03T11:09:42.786Z,5.85
2022-09-03T11:12:15.174Z,7.78
2022-09-03T11:14:46.781Z,5.78
2022-09-03T11:17:17.910Z,4.68
2022-09-03T11:19:50.978Z,5.15
2022-09-03T11:22:20.799Z,3.75
2022-09-03T11:24:54.036Z,3.58
2022-09-03T11:27:27.479Z,4.05
2022-09-03T11:29:59.057Z,4.65
2022-09-03T11:32:31.169Z,6.30
2022-09-03T11:34:59.553Z,4.70
2022-09-03T11:37:28.840Z,5.82
2022-09-03T11:40:01.924Z,4.70
2022-09-03T11:42:33.867Z,5.45
2022-09-03T11:45:03.072Z,4.05
2022-09-03T11:47:40.822Z,3.85
2022-09-03T11:50:21.109Z,3.35
2022-09-03T11:52:51.804Z,3.88
2022-09-03T11:55:26.859Z,3.15
2022-09-03T11:57:59.192Z,1.52
2022-09-03T12:00:27.605Z,2.45
2022-09-03T12:02:59.128Z,2.65
2022-09-03T12:05:34.917Z,2.10
2022-09-03T12:08:12.479Z,2.05
2022-09-03T12:10:43.844Z,2.55
2022-09-03T12:13:27.898Z,1.80
2022-09-03T12:16:23.351Z,2.65
2022-09-03T12:18:53.159Z,1.60
2022-09-03T12:21:21.720Z,3.65
2022-09-03T12:23:51.089Z,1.60
2022-09-03T12:26:27.451Z,2.10
2022-09-03T12:28:58.582Z,2.30
2022-09-03T12:31:29.722Z,2.33
2022-09-03T12:34:00.314Z,1.48
2022-09-03T12:36:29.352Z,1.92
2022-09-03T12:39:13.463Z,2.75
2022-09-03T12:41:53.646Z,1.52
2022-09-03T12:44:29.629Z,2.25
2022-09-03T12:49:55.197Z,1.73
2022-09-03T12:52:28.658Z,3.83
2022-09-03T12:55:00.004Z,1.30
2022-09-03T12:57:30.264Z,2.50
2022-09-03T13:00:01.448Z,5.68
2022-09-03T13:02:33.118Z,1.48
2022-09-03T13:05:02.568Z,2.25
2022-09-03T13:07:33.552Z,1.45
2022-09-03T13:10:04.722Z,2.15
2022-09-03T13:12:35.406Z,2.05
2022-09-03T13:15:10.761Z,2.75
2022-09-03T13:17:56.745Z,2.25
2022-09-03T13:20:35.001Z,1.73
2022-09-03T13:23:13.677Z,1.52
2022-09-03T13:25:49.045Z,2.22
2022-09-03T13:28:23.734Z,1.25
2022-09-03T13:30:57.199Z,3.67
2022-09-03T13:33:29.215Z,2.55
2022-09-03T13:36:02.574Z,1.80
2022-09-03T13:38:37.259Z,1.48
2022-09-03T13:41:10.817Z,4.60
2022-09-03T13:43:42.462Z,1.50
2022-09-03T13:46:14.118Z,2.38
2022-09-03T13:49:00.913Z,1.85
2022-09-03T13:51:30.972Z,2.53
2022-09-03T13:54:09.356Z,2.08
2022-09-03T13:56:46.424Z,2.35
2022-09-03T13:59:19.135Z,1.95
2022-09-03T14:02:11.185Z,4.70
2022-09-03T14:04:44.762Z,2.83
2022-09-03T14:07:17.562Z,3.35
2022-09-03T14:09:51.120Z,2.47
2022-09-03T14:12:23.950Z,2.22
2022-09-03T14:14:55.448Z,3.05
2022-09-03T14:17:32.687Z,5.50
2022-09-03T14:20:04.825Z,2.53
2022-09-03T14:22:36.717Z,2.38
2022-09-03T14:25:06.336Z,2.58
2022-09-03T14:27:35.966Z,3.25
2022-09-03T14:30:06.468Z,2.80
2022-09-03T14:32:42.559Z,3.40
2022-09-03T14:35:21.285Z,3.17
2022-09-03T14:38:10.057Z,2.08
2022-09-03T14:40:42.764Z,3.03
2022-09-03T14:43:20.283Z,3.15
2022-09-03T14:46:06.102Z,1.48
2022-09-03T14:48:44.604Z,1.55
2022-09-03T14:51:20.321Z,1.63
2022-09-03T14:54:04.393Z,2.05
2022-09-03T14:56:42.061Z,3.13
2022-09-03T14:59:23.153Z,2.05
2022-09-03T15:01:57.002Z,1.73
2022-09-03T15:04:40.509Z,2.15
2022-09-03T15:07:17.006Z,2.50
2022-09-03T15:09:49.101Z,3.78
2022-09-03T15:12:21.047Z,2.70
2022-09-03T15:14:54.967Z,2.67
2022-09-03T15:17:30.908Z,2.03
2022-09-03T15:20:05.404Z,2.25
2022-09-03T15:22:47.957Z,1.52
2022-09-03T15:25:22.113Z,2.88
2022-09-03T15:28:00.939Z,2.38
2022-09-03T15:30:35.722Z,1.80
2022-09-03T15:33:10.014Z,2.28
2022-09-03T15:35:45.325Z,2.22
2022-09-03T15:38:16.054Z,2.58
2022-09-03T15:40:50.104Z,2.17
2022-09-03T15:43:21.860Z,1.70
2022-09-03T15:45:58.272Z,2.55
2022-09-03T15:48:34.242Z,2.60
2022-09-03T15:51:11.977Z,2.05
2022-09-03T15:53:43.850Z,2.40
2022-09-03T15:56:20.652Z,2.67
2022-09-03T15:58:52.335Z,1.98
2022-09-03T16:01:34.974Z,1.88
2022-09-03T16:04:09.739Z,3.28
2022-09-03T16:06:47.843Z,1.75
2022-09-03T16:09:22.027Z,1.48
2022-09-03T16:11:55.238Z,1.80
2022-09-03T16:14:25.497Z,2.03
2022-09-03T16:17:01.330Z,2.63
2022-09-03T16:19:32.593Z,3.33
2022-09-03T16:22:05.653Z,2.60
2022-09-03T16:24:36.644Z,2.38
2022-09-03T16:27:09.568Z,1.90
2022-09-03T16:29:39.726Z,3.80
2022-09-03T16:32:12.554Z,2.15
2022-09-03T16:34:47.322Z,2.95
2022-09-03T16:37:24.180Z,1.65
2022-09-03T16:39:57.191Z,2.90
2022-09-03T16:42:29.165Z,2.53
2022-09-03T16:45:05.530Z,1.38
2022-09-03T16:47:37.789Z,1.95
2022-09-03T16:50:11.229Z,2.85
2022-09-03T16:52:53.040Z,4.75
2022-09-03T16:55:25.941Z,3.65
2022-09-03T16:57:59.288Z,3.00
2022-09-03T17:00:30.310Z,5.18
2022-09-03T17:03:26.364Z,3.45
2022-09-03T17:06:09.613Z,2.28
2022-09-03T17:08:45.268Z,2.80
2022-09-03T17:11:20.265Z,3.20
2022-09-03T17:13:56.608Z,2.70
2022-09-03T17:16:30.971Z,2.63
2022-09-03T17:19:05.008Z,4.00
2022-09-03T17:21:37.976Z,2.72
2022-09-03T17:24:18.201Z,2.88
2022-09-03T17:26:55.931Z,3.38
2022-09-03T17:29:35.886Z,3.08
2022-09-03T17:32:11.916Z,2.65
2022-09-03T17:34:45.760Z,3.58
2022-09-03T17:37:18.791Z,3.92
2022-09-03T17:39:55.761Z,3.42
2022-09-03T17:42:29.288Z,2.47
2022-09-03T17:45:04.640Z,3.58
2022-09-03T17:47:47.899Z,3.15
2022-09-03T17:50:18.852Z,2.92
2022-09-03T17:52:49.636Z,13.15
2022-09-03T17:55:28.078Z,4.05
2022-09-03T17:58:00.621Z,3.05
2022-09-03T18:00:35.624Z,3.10
2022-09-03T18:03:09.142Z,4.03
2022-09-03T18:05:44.485Z,5.38
2022-09-03T18:08:16.431Z,4.32
2022-09-03T18:10:48.573Z,5.65
2022-09-03T18:13:23.604Z,4.03
2022-09-03T18:15:54.650Z,3.42
2022-09-03T18:18:28.715Z,5.93
2022-09-03T18:21:24.350Z,3.05
2022-09-03T18:24:16.494Z,4.97
2022-09-03T18:27:04.701Z,3.42
2022-09-03T18:29:54.367Z,3.75
2022-09-03T18:32:40.772Z,5.25
2022-09-03T18:35:27.839Z,4.18
2022-09-03T18:38:14.002Z,4.38
2022-09-03T18:41:07.128Z,3.72
2022-09-03T18:43:59.797Z,3.92
2022-09-03T18:48:00.955Z,4.65
2022-09-03T18:50:03.795Z,4.80
2022-09-03T18:52:55.075Z,5.45
2022-09-03T18:55:45.936Z,5.55
2022-09-03T18:58:36.931Z,3.65
2022-09-03T19:01:27.942Z,3.67
2022-09-03T19:04:19.443Z,5.97
2022-09-03T19:07:10.047Z,6.50
2022-09-03T19:10:00.955Z,5.07
2022-09-03T19:12:59.187Z,4.32
2022-09-03T19:15:48.472Z,5.07
2022-09-03T19:18:41.669Z,4.65
2022-09-03T19:21:35.880Z,5.95
2022-09-03T19:24:22.301Z,4.47
2022-09-03T19:27:47.434Z,5.57
2022-09-03T19:30:23.940Z,4.32
2022-09-03T19:33:17.224Z,4.38
2022-09-03T19:36:08.525Z,4.18
2022-09-03T19:38:59.833Z,6.40
2022-09-03T19:41:50.997Z,5.60
2022-09-03T19:44:48.569Z,6.57
2022-09-03T19:47:40.260Z,5.93
2022-09-03T19:50:31.897Z,4.00
2022-09-03T19:53:20.928Z,4.00
2022-09-03T19:56:08.697Z,3.97
2022-09-03T19:58:57.357Z,8.20
2022-09-03T20:01:47.031Z,5.15
2022-09-03T20:04:34.268Z,6.13
2022-09-03T20:07:21.226Z,3.97
2022-09-03T20:10:09.481Z,4.07
2022-09-03T20:12:40.517Z,6.72
2022-09-03T20:15:09.733Z,4.97
2022-09-03T20:17:44.794Z,3.85
2022-09-03T20:20:17.589Z,4.22
2022-09-03T20:22:54.112Z,6.03
2022-09-03T20:25:38.419Z,5.60
2022-09-03T20:28:10.148Z,5.20
2022-09-03T20:30:40.963Z,10.23
2022-09-03T20:33:22.628Z,4.65
2022-09-03T20:35:57.113Z,5.03
2022-09-03T20:38:39.941Z,3.65
2022-09-03T20:41:14.878Z,5.35
2022-09-03T20:43:50.095Z,4.28
2022-09-03T20:46:28.725Z,4.47
2022-09-03T20:48:59.994Z,15.98
2022-09-03T20:51:30.844Z,6.40
2022-09-03T20:54:08.709Z,5.75
2022-09-03T20:56:42.836Z,5.05
2022-09-03T20:59:13.797Z,5.88
2022-09-03T21:01:47.933Z,7.35
2022-09-03T21:04:22.281Z,3.58
2022-09-03T21:06:53.886Z,4.22
2022-09-03T21:09:25.865Z,4.63
2022-09-03T21:12:01.097Z,7.25
2022-09-03T21:14:33.507Z,4.97
2022-09-03T21:17:08.120Z,7.28
2022-09-03T21:19:42.620Z,4.78
2022-09-03T21:22:14.379Z,5.55
2022-09-03T21:24:48.596Z,5.65
2022-09-03T21:27:20.880Z,10.80
2022-09-03T21:29:51.876Z,8.13
2022-09-03T21:32:21.941Z,7.93
2022-09-03T21:34:52.448Z,6.47
2022-09-03T21:37:20.824Z,11.07
2022-09-03T21:39:52.486Z,10.27
2022-09-03T21:42:26.524Z,6.68
2022-09-03T21:44:57.799Z,8.98
2022-09-03T21:47:27.888Z,9.43
2022-09-03T21:50:06.830Z,12.02
2022-09-03T21:52:39.237Z,5.68
2022-09-03T21:55:12.606Z,8.38
2022-09-03T21:57:46.686Z,5.72
2022-09-03T22:00:18.979Z,6.03
2022-09-03T22:02:47.644Z,6.75
2022-09-03T22:05:16.797Z,7.65
2022-09-03T22:07:54.020Z,6.85
2022-09-03T22:10:26.700Z,5.32
2022-09-03T22:13:00.831Z,7.70
2022-09-03T22:15:30.127Z,6.82
2022-09-03T22:18:02.388Z,7.55
2022-09-03T22:20:30.872Z,5.30
2022-09-03T22:23:03.724Z,5.32
2022-09-03T22:25:34.872Z,5.00
2022-09-03T22:28:09.061Z,4.15
2022-09-03T22:30:41.239Z,4.75
2022-09-03T22:33:15.466Z,7.15
2022-09-03T22:35:50.063Z,6.82
2022-09-03T22:38:27.723Z,11.68
2022-09-03T22:41:00.976Z,6.10
2022-09-03T22:43:36.475Z,5.68
2022-09-03T22:46:07.351Z,6.82
2022-09-03T22:48:54.308Z,5.93
2022-09-03T22:51:22.692Z,5.18
2022-09-03T22:53:59.990Z,5.47
2022-09-03T22:56:31.023Z,4.72
2022-09-03T22:59:03.339Z,5.05
2022-09-03T23:01:35.584Z,3.65
2022-09-03T23:04:08.867Z,8.07
2022-09-03T23:06:39.321Z,4.32
2022-09-03T23:09:09.639Z,5.70
2022-09-03T23:11:39.657Z,6.30
2022-09-03T23:14:12.351Z,3.72
2022-09-03T23:16:42.866Z,5.00
2022-09-03T23:21:47.904Z,4.35
2022-09-03T23:24:19.034Z,7.13
2022-09-03T23:26:51.428Z,7.75
2022-09-03T23:29:26.063Z,5.10
2022-09-03T23:31:55.773Z,7.00
2022-09-03T23:34:25.017Z,5.45
2022-09-03T23:37:22.483Z,9.30
2022-09-03T23:39:56.623Z,3.40
2022-09-03T23:42:32.863Z,5.88
2022-09-03T23:45:08.562Z,7.78
2022-09-03T23:47:46.114Z,5.00
2022-09-03T23:50:26.352Z,5.63
2022-09-03T23:53:00.726Z,6.93
2022-09-03T23:55:34.945Z,5.57
2022-09-03T23:58:10.353Z,5.15
